createdAt,value
2018-08-23T00:00:00.435Z,0.00
2018-08-23T00:01:00.439Z,0.00
2018-08-23T00:02:00.441Z,0.00
2018-08-23T00:03:00.473Z,0.00
2018-08-23T00:04:00.448Z,0.00
2018-08-23T00:05:00.451Z,0.00
2018-08-23T00:06:00.454Z,0.00
2018-08-23T00:07:00.459Z,0.00
2018-08-23T00:08:00.464Z,0.00
2018-08-23T00:09:00.464Z,0.00
2018-08-23T00:10:00.468Z,0.00
2018-08-23T00:11:00.470Z,0.00
2018-08-23T00:12:00.472Z,0.00
2018-08-23T00:13:00.477Z,0.00
2018-08-23T00:14:00.480Z,0.00
2018-08-23T00:15:00.482Z,0.00
2018-08-23T00:16:00.485Z,0.00
2018-08-23T00:17:00.489Z,0.00
2018-08-23T00:18:00.492Z,0.00
2018-08-23T00:19:00.495Z,0.00
2018-08-23T00:20:00.498Z,0.00
2018-08-23T00:21:00.502Z,0.00
2018-08-23T00:22:00.504Z,0.00
2018-08-23T00:23:00.507Z,0.00
2018-08-23T00:24:00.511Z,0.00
2018-08-23T00:25:00.515Z,0.00
2018-08-23T00:26:00.516Z,0.00
2018-08-23T00:27:00.539Z,0.00
2018-08-23T00:28:00.524Z,0.00
2018-08-23T00:29:00.527Z,0.00
2018-08-23T00:30:00.529Z,0.00
2018-08-23T00:31:00.531Z,0.00
2018-08-23T00:32:00.541Z,0.00
2018-08-23T00:33:00.538Z,0.00
2018-08-23T00:34:00.543Z,0.00
2018-08-23T00:35:00.545Z,0.00
2018-08-23T00:36:00.548Z,0.00
2018-08-23T00:37:00.552Z,0.00
2018-08-23T00:38:00.555Z,0.00
2018-08-23T00:39:00.558Z,0.00
2018-08-23T00:40:00.561Z,0.00
2018-08-23T00:41:00.564Z,0.00
2018-08-23T00:42:00.567Z,0.00
2018-08-23T00:43:00.569Z,0.00
2018-08-23T00:44:00.572Z,0.00
2018-08-23T00:45:00.577Z,0.00
2018-08-23T00:46:00.578Z,0.00
2018-08-23T00:47:00.583Z,0.00
2018-08-23T00:48:00.586Z,0.00
2018-08-23T00:49:00.589Z,0.00
2018-08-23T00:50:00.594Z,0.00
2018-08-23T00:51:00.594Z,0.00
2018-08-23T00:52:00.599Z,0.00
2018-08-23T00:53:00.601Z,0.00
2018-08-23T00:54:00.609Z,0.00
2018-08-23T00:55:00.606Z,0.00
2018-08-23T00:56:00.610Z,0.00
2018-08-23T00:57:00.614Z,0.00
2018-08-23T00:58:00.616Z,0.00
2018-08-23T00:59:00.619Z,0.00
2018-08-23T01:00:00.623Z,0.00
2018-08-23T01:01:00.627Z,0.00
2018-08-23T01:02:00.628Z,0.00
2018-08-23T01:03:00.632Z,0.00
2018-08-23T01:04:00.635Z,0.00
2018-08-23T01:05:00.638Z,0.00
2018-08-23T01:06:00.643Z,0.00
2018-08-23T01:07:00.646Z,0.00
2018-08-23T01:08:00.651Z,0.00
2018-08-23T01:09:00.652Z,0.00
2018-08-23T01:10:00.658Z,0.00
2018-08-23T01:11:00.657Z,0.00
2018-08-23T01:12:00.661Z,0.00
2018-08-23T01:13:00.668Z,0.00
2018-08-23T01:14:00.668Z,0.00
2018-08-23T01:15:00.670Z,0.00
2018-08-23T01:16:00.672Z,0.00
2018-08-23T01:17:00.727Z,0.00
2018-08-23T01:18:00.678Z,0.00
2018-08-23T01:19:00.685Z,0.00
2018-08-23T01:20:00.684Z,0.00
2018-08-23T01:21:00.689Z,0.00
2018-08-23T01:22:00.691Z,0.00
2018-08-23T01:23:00.692Z,0.00
2018-08-23T01:24:00.697Z,0.00
2018-08-23T01:25:00.700Z,0.00
2018-08-23T01:26:00.701Z,0.00
2018-08-23T01:27:00.705Z,0.00
2018-08-23T01:28:00.708Z,0.00
2018-08-23T01:29:00.712Z,0.00
2018-08-23T01:30:00.715Z,0.00
2018-08-23T01:31:00.717Z,0.00
2018-08-23T01:32:00.722Z,0.00
2018-08-23T01:33:00.724Z,0.00
2018-08-23T01:34:00.727Z,0.00
2018-08-23T01:35:00.729Z,0.00
2018-08-23T01:36:00.735Z,0.00
2018-08-23T01:37:00.735Z,0.00
2018-08-23T01:38:00.741Z,0.00
2018-08-23T01:39:00.741Z,0.00
2018-08-23T01:40:00.744Z,0.00
2018-08-23T01:41:00.748Z,0.00
2018-08-23T01:42:00.749Z,0.00
2018-08-23T01:43:00.752Z,0.00
2018-08-23T01:44:00.756Z,0.00
2018-08-23T01:45:00.764Z,0.00
2018-08-23T01:46:00.761Z,0.00
2018-08-23T01:47:00.763Z,0.00
2018-08-23T01:48:00.766Z,0.00
2018-08-23T01:49:00.769Z,0.00
2018-08-23T01:50:00.772Z,0.00
2018-08-23T01:51:00.776Z,0.00
2018-08-23T01:52:00.779Z,0.00
2018-08-23T01:53:00.782Z,0.00
2018-08-23T01:54:00.784Z,0.00
2018-08-23T01:55:00.786Z,0.00
2018-08-23T01:56:00.790Z,0.00
2018-08-23T01:57:00.793Z,0.00
2018-08-23T01:58:00.800Z,0.00
2018-08-23T01:59:00.799Z,0.00
2018-08-23T02:00:00.801Z,0.00
2018-08-23T02:01:00.805Z,0.00
2018-08-23T02:02:00.807Z,0.00
2018-08-23T02:03:00.809Z,0.00
2018-08-23T02:04:00.815Z,0.00
2018-08-23T02:05:00.816Z,0.00
2018-08-23T02:06:00.817Z,0.00
2018-08-23T02:07:00.821Z,0.00
2018-08-23T02:08:00.824Z,0.00
2018-08-23T02:09:00.827Z,0.00
2018-08-23T02:10:00.831Z,0.00
2018-08-23T02:11:00.832Z,0.00
2018-08-23T02:12:00.835Z,0.00
2018-08-23T02:13:00.838Z,0.00
2018-08-23T02:14:00.840Z,0.00
2018-08-23T02:15:00.842Z,0.00
2018-08-23T02:16:00.849Z,0.00
2018-08-23T02:17:00.848Z,0.00
2018-08-23T02:18:00.851Z,0.00
2018-08-23T02:19:00.854Z,0.00
2018-08-23T02:20:00.857Z,0.00
2018-08-23T02:21:00.858Z,0.00
2018-08-23T02:22:00.862Z,0.00
2018-08-23T02:23:00.865Z,0.00
2018-08-23T02:24:00.867Z,0.00
2018-08-23T02:25:00.869Z,0.00
2018-08-23T02:26:00.872Z,0.00
2018-08-23T02:27:00.876Z,0.00
2018-08-23T02:28:00.879Z,0.00
2018-08-23T02:29:00.882Z,0.00
2018-08-23T02:30:00.884Z,0.00
2018-08-23T02:31:00.887Z,0.00
2018-08-23T02:32:00.889Z,0.00
2018-08-23T02:33:00.893Z,0.00
2018-08-23T02:34:00.895Z,0.00
2018-08-23T02:35:00.898Z,0.00
2018-08-23T02:36:00.900Z,0.00
2018-08-23T02:37:00.904Z,0.00
2018-08-23T02:38:00.931Z,0.00
2018-08-23T02:39:00.908Z,0.00
2018-08-23T02:40:00.913Z,0.00
2018-08-23T02:41:00.915Z,0.00
2018-08-23T02:42:00.931Z,0.00
2018-08-23T02:43:00.921Z,0.00
2018-08-23T02:44:00.923Z,0.00
2018-08-23T02:45:00.926Z,0.00
2018-08-23T02:46:00.928Z,0.00
2018-08-23T02:47:00.931Z,0.00
2018-08-23T02:48:00.934Z,0.00
2018-08-23T02:49:00.937Z,0.00
2018-08-23T02:50:00.939Z,0.00
2018-08-23T02:51:00.942Z,0.00
2018-08-23T02:52:00.945Z,0.00
2018-08-23T02:53:00.948Z,0.00
2018-08-23T02:54:00.948Z,0.00
2018-08-23T02:55:00.953Z,0.00
2018-08-23T02:56:00.956Z,0.00
2018-08-23T02:57:00.959Z,0.00
2018-08-23T02:58:00.963Z,0.00
2018-08-23T02:59:00.963Z,0.00
2018-08-23T03:00:00.967Z,0.00
2018-08-23T03:01:00.970Z,0.00
2018-08-23T03:02:00.973Z,0.00
2018-08-23T03:03:00.975Z,0.00
2018-08-23T03:04:00.979Z,0.00
2018-08-23T03:05:00.980Z,0.00
2018-08-23T03:06:00.983Z,0.00
2018-08-23T03:07:00.985Z,0.00
2018-08-23T03:08:00.989Z,0.00
2018-08-23T03:09:00.992Z,0.00
2018-08-23T03:10:00.993Z,0.00
2018-08-23T03:11:00.997Z,0.00
2018-08-23T03:12:00.999Z,0.00
2018-08-23T03:13:01.003Z,0.00
2018-08-23T03:14:01.061Z,0.00
2018-08-23T03:15:01.007Z,0.00
2018-08-23T03:16:01.010Z,0.00
2018-08-23T03:17:01.013Z,0.00
2018-08-23T03:18:01.014Z,0.00
2018-08-23T03:19:01.019Z,0.00
2018-08-23T03:20:01.021Z,0.00
2018-08-23T03:21:01.025Z,0.00
2018-08-23T03:22:01.026Z,0.00
2018-08-23T03:23:01.028Z,0.00
2018-08-23T03:24:01.030Z,0.00
2018-08-23T03:25:01.033Z,0.00
2018-08-23T03:26:01.036Z,0.00
2018-08-23T03:27:01.039Z,0.00
2018-08-23T03:28:01.040Z,0.00
2018-08-23T03:29:01.045Z,0.00
2018-08-23T03:30:01.044Z,0.00
2018-08-23T03:31:01.050Z,0.00
2018-08-23T03:32:01.050Z,0.00
2018-08-23T03:33:01.054Z,0.00
2018-08-23T03:34:01.056Z,0.00
2018-08-23T03:35:01.061Z,0.00
2018-08-23T03:36:01.060Z,0.00
2018-08-23T03:37:01.064Z,0.00
2018-08-23T03:38:01.066Z,0.00
2018-08-23T03:39:01.068Z,0.00
2018-08-23T03:40:01.070Z,0.00
2018-08-23T03:41:01.074Z,0.00
2018-08-23T03:42:01.074Z,0.00
2018-08-23T03:43:01.122Z,0.00
2018-08-23T03:44:01.081Z,0.00
2018-08-23T03:45:01.086Z,0.00
2018-08-23T03:46:01.090Z,0.00
2018-08-23T03:47:01.088Z,0.00
2018-08-23T03:48:01.092Z,0.00
2018-08-23T03:49:01.095Z,0.00
2018-08-23T03:50:01.094Z,0.00
2018-08-23T03:51:01.100Z,0.00
2018-08-23T03:52:01.100Z,0.00
2018-08-23T03:53:01.102Z,0.00
2018-08-23T03:54:01.103Z,0.00
2018-08-23T03:55:01.109Z,0.00
2018-08-23T03:56:01.109Z,0.00
2018-08-23T03:57:01.111Z,0.00
2018-08-23T03:58:01.122Z,0.00
2018-08-23T03:59:01.115Z,0.00
2018-08-23T04:00:01.118Z,4.00
2018-08-23T04:01:01.122Z,4.00
2018-08-23T04:02:01.123Z,0.00
2018-08-23T04:03:01.125Z,0.00
2018-08-23T04:04:01.128Z,4.00
2018-08-23T04:05:01.129Z,0.00
2018-08-23T04:06:01.132Z,4.00
2018-08-23T04:07:01.133Z,4.00
2018-08-23T04:08:01.136Z,4.00
2018-08-23T04:09:01.138Z,8.00
2018-08-23T04:10:01.146Z,4.00
2018-08-23T04:11:01.144Z,8.00
2018-08-23T04:12:01.145Z,8.00
2018-08-23T04:13:01.149Z,8.00
2018-08-23T04:14:01.148Z,12.00
2018-08-23T04:15:01.152Z,8.00
2018-08-23T04:16:01.153Z,12.00
2018-08-23T04:17:01.157Z,12.00
2018-08-23T04:18:01.158Z,12.00
2018-08-23T04:19:01.162Z,16.00
2018-08-23T04:20:01.186Z,20.00
2018-08-23T04:21:01.166Z,20.00
2018-08-23T04:22:01.168Z,20.00
2018-08-23T04:23:01.267Z,24.00
2018-08-23T04:24:01.172Z,28.00
2018-08-23T04:25:01.175Z,28.00
2018-08-23T04:26:01.174Z,28.00
2018-08-23T04:27:01.178Z,32.00
2018-08-23T04:28:01.182Z,36.00
2018-08-23T04:29:01.195Z,36.00
2018-08-23T04:30:01.184Z,40.00
2018-08-23T04:31:01.188Z,44.00
2018-08-23T04:32:01.189Z,48.00
2018-08-23T04:33:01.192Z,48.00
2018-08-23T04:34:01.193Z,52.00
2018-08-23T04:35:01.198Z,56.00
2018-08-23T04:36:01.198Z,60.00
2018-08-23T04:37:01.201Z,60.00
2018-08-23T04:38:01.205Z,64.00
2018-08-23T04:39:01.205Z,72.00
2018-08-23T04:40:01.207Z,72.00
2018-08-23T04:41:01.210Z,80.00
2018-08-23T04:42:01.210Z,88.00
2018-08-23T04:43:01.213Z,92.00
2018-08-23T04:44:01.216Z,100.00
2018-08-23T04:45:01.219Z,116.00
2018-08-23T04:46:01.220Z,128.00
2018-08-23T04:47:01.223Z,140.00
2018-08-23T04:48:01.224Z,152.00
2018-08-23T04:49:01.228Z,160.00
2018-08-23T04:50:01.229Z,164.00
2018-08-23T04:51:01.236Z,172.00
2018-08-23T04:52:01.233Z,180.00
2018-08-23T04:53:01.238Z,188.00
2018-08-23T04:54:01.236Z,192.00
2018-08-23T04:55:01.245Z,204.00
2018-08-23T04:56:01.242Z,212.00
2018-08-23T04:57:01.244Z,224.00
2018-08-23T04:58:01.247Z,240.00
2018-08-23T04:59:01.248Z,256.00
2018-08-23T05:00:01.251Z,272.00
2018-08-23T05:01:01.253Z,284.00
2018-08-23T05:02:01.259Z,304.00
2018-08-23T05:03:01.256Z,316.00
2018-08-23T05:04:01.336Z,328.00
2018-08-23T05:05:01.262Z,344.00
2018-08-23T05:06:01.266Z,356.00
2018-08-23T05:07:01.266Z,372.00
2018-08-23T05:08:01.269Z,384.00
2018-08-23T05:09:01.272Z,396.00
2018-08-23T05:10:01.273Z,416.00
2018-08-23T05:11:01.275Z,432.00
2018-08-23T05:12:01.278Z,456.00
2018-08-23T05:13:01.280Z,476.00
2018-08-23T05:14:01.316Z,496.00
2018-08-23T05:15:01.285Z,516.00
2018-08-23T05:16:01.293Z,536.00
2018-08-23T05:17:01.290Z,552.00
2018-08-23T05:18:01.292Z,564.00
2018-08-23T05:19:01.294Z,576.00
2018-08-23T05:20:01.297Z,592.00
2018-08-23T05:21:01.301Z,608.00
2018-08-23T05:22:01.301Z,640.00
2018-08-23T05:23:01.307Z,676.00
2018-08-23T05:24:01.306Z,696.00
2018-08-23T05:25:01.311Z,708.00
2018-08-23T05:26:01.312Z,732.00
2018-08-23T05:27:01.313Z,760.00
2018-08-23T05:28:01.316Z,772.00
2018-08-23T05:29:01.321Z,768.00
2018-08-23T05:30:01.321Z,764.00
2018-08-23T05:31:01.325Z,756.00
2018-08-23T05:32:01.326Z,792.00
2018-08-23T05:33:01.330Z,844.00
2018-08-23T05:34:01.332Z,864.00
2018-08-23T05:35:01.334Z,888.00
2018-08-23T05:36:01.335Z,900.00
2018-08-23T05:37:01.340Z,912.00
2018-08-23T05:38:01.343Z,920.00
2018-08-23T05:39:01.343Z,908.00
2018-08-23T05:40:01.347Z,932.00
2018-08-23T05:41:01.350Z,944.00
2018-08-23T05:42:01.352Z,968.00
2018-08-23T05:43:01.355Z,1016.00
2018-08-23T05:44:01.359Z,1072.00
2018-08-23T05:45:01.364Z,1120.00
2018-08-23T05:46:01.364Z,1164.00
2018-08-23T05:47:01.368Z,1208.00
2018-08-23T05:48:01.369Z,1252.00
2018-08-23T05:49:01.373Z,1284.00
2018-08-23T05:50:01.374Z,1308.00
2018-08-23T05:51:01.379Z,1316.00
2018-08-23T05:52:01.382Z,1328.00
2018-08-23T05:53:01.384Z,1340.00
2018-08-23T05:54:01.388Z,1356.00
2018-08-23T05:55:01.389Z,1380.00
2018-08-23T05:56:01.393Z,1404.00
2018-08-23T05:57:01.395Z,1432.00
2018-08-23T05:58:01.435Z,1464.00
2018-08-23T05:59:01.409Z,1484.00
2018-08-23T06:00:01.695Z,1500.00
2018-08-23T06:01:01.409Z,1508.00
2018-08-23T06:02:01.411Z,1508.00
2018-08-23T06:03:01.415Z,1512.00
2018-08-23T06:04:01.418Z,1512.00
2018-08-23T06:05:01.421Z,1516.00
2018-08-23T06:06:01.424Z,1520.00
2018-08-23T06:07:01.432Z,1520.00
2018-08-23T06:08:01.431Z,1516.00
2018-08-23T06:09:01.434Z,1520.00
2018-08-23T06:10:01.509Z,1520.00
2018-08-23T06:11:01.439Z,1524.00
2018-08-23T06:12:01.443Z,1544.00
2018-08-23T06:13:01.447Z,1560.00
2018-08-23T06:14:01.472Z,1572.00
2018-08-23T06:15:01.453Z,1576.00
2018-08-23T06:16:01.455Z,1576.00
2018-08-23T06:17:01.460Z,1560.00
2018-08-23T06:18:01.462Z,1556.00
2018-08-23T06:19:01.471Z,1552.00
2018-08-23T06:20:01.473Z,1568.00
2018-08-23T06:21:01.472Z,1616.00
2018-08-23T06:22:01.478Z,1644.00
2018-08-23T06:23:01.479Z,1656.00
2018-08-23T06:24:01.482Z,1660.00
2018-08-23T06:25:01.486Z,1668.00
2018-08-23T06:26:01.487Z,1684.00
2018-08-23T06:27:01.494Z,1716.00
2018-08-23T06:28:01.498Z,1744.00
2018-08-23T06:29:01.499Z,1780.00
2018-08-23T06:30:01.501Z,1808.00
2018-08-23T06:31:01.505Z,1840.00
2018-08-23T06:32:01.508Z,1864.00
2018-08-23T06:33:01.613Z,1880.00
2018-08-23T06:34:01.578Z,1900.00
2018-08-23T06:35:01.517Z,1916.00
2018-08-23T06:36:01.521Z,1936.00
2018-08-23T06:37:01.523Z,2004.00
2018-08-23T06:38:01.526Z,2032.00
2018-08-23T06:39:01.531Z,2064.00
2018-08-23T06:40:01.556Z,2072.00
2018-08-23T06:41:01.539Z,2112.00
2018-08-23T06:42:01.540Z,2232.00
2018-08-23T06:43:01.544Z,4424.00
2018-08-23T06:44:01.547Z,8736.00
2018-08-23T06:45:01.551Z,10452.00
2018-08-23T06:46:01.633Z,8496.00
2018-08-23T06:47:01.558Z,6264.00
2018-08-23T06:48:01.563Z,6820.00
2018-08-23T06:49:01.580Z,7356.00
2018-08-23T06:50:01.575Z,7608.00
2018-08-23T06:51:01.593Z,9776.00
2018-08-23T06:52:01.640Z,9940.00
2018-08-23T06:53:01.587Z,9580.00
2018-08-23T06:54:01.591Z,6568.00
2018-08-23T06:55:01.596Z,4736.00
2018-08-23T06:56:01.601Z,6400.00
2018-08-23T06:57:01.613Z,6040.00
2018-08-23T06:58:01.614Z,6852.00
2018-08-23T06:59:01.658Z,7432.00
2018-08-23T07:00:01.626Z,7192.00
2018-08-23T07:01:01.631Z,7128.00
2018-08-23T07:02:01.643Z,5624.00
2018-08-23T07:03:01.643Z,3712.00
2018-08-23T07:04:01.652Z,3768.00
2018-08-23T07:05:01.656Z,4420.00
2018-08-23T07:06:01.661Z,6736.00
2018-08-23T07:07:01.701Z,6016.00
2018-08-23T07:08:01.675Z,5496.00
2018-08-23T07:09:01.680Z,5436.00
2018-08-23T07:10:01.683Z,6544.00
2018-08-23T07:11:01.689Z,5764.00
2018-08-23T07:12:01.725Z,4164.00
2018-08-23T07:13:01.701Z,4152.00
2018-08-23T07:14:01.706Z,4484.00
2018-08-23T07:15:01.712Z,3436.00
2018-08-23T07:16:01.717Z,2744.00
2018-08-23T07:17:01.727Z,2476.00
2018-08-23T07:18:01.742Z,2324.00
2018-08-23T07:19:01.733Z,2232.00
2018-08-23T07:20:01.739Z,2152.00
2018-08-23T07:21:01.746Z,2056.00
2018-08-23T07:22:01.750Z,1956.00
2018-08-23T07:23:01.754Z,1848.00
2018-08-23T07:24:01.803Z,1740.00
2018-08-23T07:25:01.768Z,1644.00
2018-08-23T07:26:01.769Z,1576.00
2018-08-23T07:27:01.790Z,1520.00
2018-08-23T07:28:01.779Z,1500.00
2018-08-23T07:29:01.819Z,1492.00
2018-08-23T07:30:01.871Z,1476.00
2018-08-23T07:31:01.795Z,1452.00
2018-08-23T07:32:01.799Z,1488.00
2018-08-23T07:33:02.256Z,1472.00
2018-08-23T07:34:01.807Z,1448.00
2018-08-23T07:35:01.812Z,1436.00
2018-08-23T07:36:02.111Z,1528.00
2018-08-23T07:37:02.119Z,1564.00
2018-08-23T07:38:02.019Z,1648.00
2018-08-23T07:39:02.120Z,1680.00
2018-08-23T07:40:02.215Z,1768.00
2018-08-23T07:41:02.164Z,1956.00
2018-08-23T07:42:02.003Z,2492.00
2018-08-23T07:43:01.889Z,3640.00
2018-08-23T07:44:01.855Z,4592.00
2018-08-23T07:45:01.863Z,3992.00
2018-08-23T07:46:01.864Z,3344.00
2018-08-23T07:47:01.872Z,2440.00
2018-08-23T07:48:01.874Z,3364.00
2018-08-23T07:49:01.902Z,3784.00
2018-08-23T07:50:01.888Z,4024.00
2018-08-23T07:51:01.889Z,3908.00
2018-08-23T07:52:01.899Z,4256.00
2018-08-23T07:53:02.015Z,4188.00
2018-08-23T07:54:01.904Z,3992.00
2018-08-23T07:55:01.911Z,3796.00
2018-08-23T07:56:01.915Z,3840.00
2018-08-23T07:57:01.921Z,3860.00
2018-08-23T07:58:01.925Z,3944.00
2018-08-23T07:59:01.933Z,4204.00
2018-08-23T08:00:01.937Z,5096.00
2018-08-23T08:01:01.943Z,6008.00
2018-08-23T08:02:01.951Z,2960.00
2018-08-23T08:03:01.953Z,2684.00
2018-08-23T08:04:01.960Z,2652.00
2018-08-23T08:05:02.287Z,2708.00
2018-08-23T08:06:01.970Z,2872.00
2018-08-23T08:07:01.976Z,2804.00
2018-08-23T08:08:01.982Z,2720.00
2018-08-23T08:09:01.988Z,2580.00
2018-08-23T08:10:01.993Z,2416.00
2018-08-23T08:11:02.113Z,2888.00
2018-08-23T08:12:02.028Z,3284.00
2018-08-23T08:13:02.021Z,4104.00
2018-08-23T08:14:02.013Z,4064.00
2018-08-23T08:15:02.134Z,3932.00
2018-08-23T08:16:02.027Z,4108.00
2018-08-23T08:17:02.033Z,3436.00
2018-08-23T08:18:02.050Z,2900.00
2018-08-23T08:19:02.045Z,2724.00
2018-08-23T08:20:02.050Z,3092.00
2018-08-23T08:21:02.185Z,3556.00
2018-08-23T08:22:02.061Z,2556.00
2018-08-23T08:23:02.068Z,1952.00
2018-08-23T08:24:02.074Z,1860.00
2018-08-23T08:25:02.113Z,1752.00
2018-08-23T08:26:02.086Z,1656.00
2018-08-23T08:27:02.149Z,1640.00
2018-08-23T08:28:02.214Z,1640.00
2018-08-23T08:29:02.102Z,1656.00
2018-08-23T08:30:02.130Z,1688.00
2018-08-23T08:31:02.112Z,1716.00
2018-08-23T08:32:02.119Z,1740.00
2018-08-23T08:33:02.129Z,1776.00
2018-08-23T08:34:02.129Z,1816.00
2018-08-23T08:35:02.135Z,1860.00
2018-08-23T08:36:02.139Z,1916.00
2018-08-23T08:37:02.143Z,2000.00
2018-08-23T08:38:02.149Z,2116.00
2018-08-23T08:39:02.158Z,2248.00
2018-08-23T08:40:02.162Z,2432.00
2018-08-23T08:41:02.165Z,2640.00
2018-08-23T08:42:02.254Z,2696.00
2018-08-23T08:43:02.174Z,2872.00
2018-08-23T08:44:02.181Z,3060.00
2018-08-23T08:45:02.185Z,2976.00
2018-08-23T08:46:02.189Z,3180.00
2018-08-23T08:47:02.195Z,3320.00
2018-08-23T08:48:02.205Z,3488.00
2018-08-23T08:49:02.207Z,3664.00
2018-08-23T08:50:02.420Z,3592.00
2018-08-23T08:51:02.216Z,3552.00
2018-08-23T08:52:02.221Z,3548.00
2018-08-23T08:53:02.227Z,3620.00
2018-08-23T08:54:02.235Z,3576.00
2018-08-23T08:55:02.241Z,3668.00
2018-08-23T08:56:02.243Z,3920.00
2018-08-23T08:57:02.307Z,3652.00
2018-08-23T08:58:02.254Z,3460.00
2018-08-23T08:59:02.260Z,3836.00
2018-08-23T09:00:02.269Z,4308.00
2018-08-23T09:01:02.272Z,5152.00
2018-08-23T09:02:02.279Z,5340.00
2018-08-23T09:03:02.334Z,4856.00
2018-08-23T09:04:02.290Z,5712.00
2018-08-23T09:05:02.296Z,5952.00
2018-08-23T09:06:02.301Z,4640.00
2018-08-23T09:07:02.309Z,4528.00
2018-08-23T09:08:02.534Z,5364.00
2018-08-23T09:09:02.322Z,6400.00
2018-08-23T09:10:02.328Z,6132.00
2018-08-23T09:11:02.346Z,5244.00
2018-08-23T09:12:02.343Z,5804.00
2018-08-23T09:13:02.351Z,5508.00
2018-08-23T09:14:02.357Z,5784.00
2018-08-23T09:15:02.410Z,6204.00
2018-08-23T09:16:02.373Z,5876.00
2018-08-23T09:17:02.381Z,7864.00
2018-08-23T09:18:02.392Z,8112.00
2018-08-23T09:19:02.398Z,8032.00
2018-08-23T09:20:02.408Z,9424.00
2018-08-23T09:21:02.414Z,8184.00
2018-08-23T09:22:02.423Z,8864.00
2018-08-23T09:23:02.433Z,10676.00
2018-08-23T09:24:02.442Z,10808.00
2018-08-23T09:25:02.451Z,10804.00
2018-08-23T09:26:02.461Z,10808.00
2018-08-23T09:27:02.475Z,10820.00
2018-08-23T09:28:02.521Z,10772.00
2018-08-23T09:29:02.492Z,10788.00
2018-08-23T09:30:02.502Z,10600.00
2018-08-23T09:31:02.513Z,10432.00
2018-08-23T09:32:02.574Z,10368.00
2018-08-23T09:33:02.535Z,10360.00
2018-08-23T09:34:02.544Z,10048.00
2018-08-23T09:35:02.607Z,10128.00
2018-08-23T09:36:02.568Z,10008.00
2018-08-23T09:37:02.580Z,9824.00
2018-08-23T09:38:02.591Z,9948.00
2018-08-23T09:39:02.602Z,10284.00
2018-08-23T09:40:02.618Z,10624.00
2018-08-23T09:41:03.059Z,10660.00
2018-08-23T09:42:02.638Z,10668.00
2018-08-23T09:43:02.815Z,8492.00
2018-08-23T09:44:02.663Z,9556.00
2018-08-23T09:45:02.677Z,5604.00
2018-08-23T09:46:03.152Z,6648.00
2018-08-23T09:47:02.700Z,6352.00
2018-08-23T09:48:02.715Z,6876.00
2018-08-23T09:49:02.724Z,7892.00
2018-08-23T09:50:02.763Z,8828.00
2018-08-23T09:51:02.783Z,8520.00
2018-08-23T09:52:02.761Z,6600.00
2018-08-23T09:53:02.773Z,8576.00
2018-08-23T09:54:02.783Z,9644.00
2018-08-23T09:55:02.795Z,9224.00
2018-08-23T09:56:02.809Z,8344.00
2018-08-23T09:57:02.820Z,7040.00
2018-08-23T09:58:02.831Z,6264.00
2018-08-23T09:59:02.842Z,7272.00
2018-08-23T10:00:02.860Z,7840.00
2018-08-23T10:01:02.963Z,6388.00
2018-08-23T10:02:02.879Z,7456.00
2018-08-23T10:03:02.893Z,7540.00
2018-08-23T10:04:02.902Z,9040.00
2018-08-23T10:05:02.913Z,10616.00
2018-08-23T10:06:02.927Z,10416.00
2018-08-23T10:07:02.937Z,10172.00
2018-08-23T10:08:02.949Z,7748.00
2018-08-23T10:09:02.993Z,5380.00
2018-08-23T10:10:03.055Z,5940.00
2018-08-23T10:11:03.075Z,6716.00
2018-08-23T10:12:02.997Z,6288.00
2018-08-23T10:13:03.012Z,8244.00
2018-08-23T10:14:03.020Z,8820.00
2018-08-23T10:15:04.150Z,8068.00
2018-08-23T10:16:03.044Z,8844.00
2018-08-23T10:17:03.058Z,9592.00
2018-08-23T10:18:03.071Z,10052.00
2018-08-23T10:19:03.078Z,9760.00
2018-08-23T10:20:03.090Z,8896.00
2018-08-23T10:21:03.102Z,9572.00
2018-08-23T10:22:03.113Z,8156.00
2018-08-23T10:23:03.126Z,5384.00
2018-08-23T10:24:03.137Z,3220.00
2018-08-23T10:25:03.148Z,2936.00
2018-08-23T10:26:03.159Z,2908.00
2018-08-23T10:27:03.170Z,2908.00
2018-08-23T10:28:03.210Z,3032.00
2018-08-23T10:29:03.192Z,3872.00
2018-08-23T10:30:03.202Z,4948.00
2018-08-23T10:31:03.213Z,5492.00
2018-08-23T10:32:03.260Z,4616.00
2018-08-23T10:33:03.233Z,4428.00
2018-08-23T10:34:03.242Z,3768.00
2018-08-23T10:35:03.253Z,4132.00
2018-08-23T10:36:03.700Z,4728.00
2018-08-23T10:37:03.321Z,3052.00
2018-08-23T10:38:03.290Z,2784.00
2018-08-23T10:39:03.295Z,2548.00
2018-08-23T10:40:03.301Z,2384.00
2018-08-23T10:41:03.310Z,2264.00
2018-08-23T10:42:03.617Z,2168.00
2018-08-23T10:43:03.327Z,2096.00
2018-08-23T10:44:03.340Z,2052.00
2018-08-23T10:45:03.349Z,2016.00
2018-08-23T10:46:03.355Z,1956.00
2018-08-23T10:47:03.363Z,1892.00
2018-08-23T10:48:03.371Z,1856.00
2018-08-23T10:49:03.378Z,1836.00
2018-08-23T10:50:03.476Z,1820.00
2018-08-23T10:51:03.478Z,1808.00
2018-08-23T10:52:03.401Z,1792.00
2018-08-23T10:53:03.410Z,1768.00
2018-08-23T10:54:03.416Z,1748.00
2018-08-23T10:55:03.424Z,1708.00
2018-08-23T10:56:03.431Z,1644.00
2018-08-23T10:57:03.440Z,1564.00
2018-08-23T10:58:03.450Z,1496.00
2018-08-23T10:59:03.480Z,1444.00
2018-08-23T11:00:03.461Z,1408.00
2018-08-23T11:01:03.701Z,1372.00
2018-08-23T11:02:03.493Z,1352.00
2018-08-23T11:03:03.788Z,1336.00
2018-08-23T11:04:03.490Z,1324.00
2018-08-23T11:05:03.498Z,1316.00
2018-08-23T11:06:03.745Z,1304.00
2018-08-23T11:07:03.510Z,1292.00
2018-08-23T11:08:03.764Z,1296.00
2018-08-23T11:09:03.717Z,1308.00
2018-08-23T11:10:03.530Z,1312.00
2018-08-23T11:11:03.537Z,1300.00
2018-08-23T11:12:03.545Z,1284.00
2018-08-23T11:13:03.551Z,1260.00
2018-08-23T11:14:05.159Z,1252.00
2018-08-23T11:15:03.562Z,1256.00
2018-08-23T11:16:03.570Z,1280.00
2018-08-23T11:17:03.721Z,1312.00
2018-08-23T11:18:03.581Z,1332.00
2018-08-23T11:19:03.589Z,1348.00
2018-08-23T11:20:03.594Z,1348.00
2018-08-23T11:21:03.601Z,1352.00
2018-08-23T11:22:03.607Z,1368.00
2018-08-23T11:23:03.635Z,1388.00
2018-08-23T11:24:03.619Z,1412.00
2018-08-23T11:25:03.626Z,1432.00
2018-08-23T11:26:03.630Z,1440.00
2018-08-23T11:27:03.637Z,1444.00
2018-08-23T11:28:03.645Z,1440.00
2018-08-23T11:29:03.649Z,1424.00
2018-08-23T11:30:03.712Z,1412.00
2018-08-23T11:31:03.665Z,1400.00
2018-08-23T11:32:03.667Z,1380.00
2018-08-23T11:33:03.673Z,1388.00
2018-08-23T11:34:03.679Z,1412.00
2018-08-23T11:35:03.751Z,1460.00
2018-08-23T11:36:03.741Z,1496.00
2018-08-23T11:37:03.698Z,1532.00
2018-08-23T11:38:03.703Z,1580.00
2018-08-23T11:39:03.738Z,1692.00
2018-08-23T11:40:03.716Z,1928.00
2018-08-23T11:41:03.726Z,2160.00
2018-08-23T11:42:03.795Z,2300.00
2018-08-23T11:43:03.737Z,2412.00
2018-08-23T11:44:03.744Z,2472.00
2018-08-23T11:45:03.747Z,2512.00
2018-08-23T11:46:03.995Z,2600.00
2018-08-23T11:47:03.763Z,2716.00
2018-08-23T11:48:03.766Z,2596.00
2018-08-23T11:49:03.771Z,2204.00
2018-08-23T11:50:03.778Z,2028.00
2018-08-23T11:51:03.786Z,1916.00
2018-08-23T11:52:03.789Z,1840.00
2018-08-23T11:53:03.816Z,1792.00
2018-08-23T11:54:03.801Z,1768.00
2018-08-23T11:55:03.807Z,1764.00
2018-08-23T11:56:03.820Z,1772.00
2018-08-23T11:57:03.852Z,1804.00
2018-08-23T11:58:03.901Z,1876.00
2018-08-23T11:59:03.885Z,1900.00
2018-08-23T12:00:03.838Z,1872.00
2018-08-23T12:01:03.849Z,1824.00
2018-08-23T12:02:04.457Z,1756.00
2018-08-23T12:03:03.855Z,1676.00
2018-08-23T12:04:03.979Z,1616.00
2018-08-23T12:05:04.128Z,1560.00
2018-08-23T12:06:03.944Z,1508.00
2018-08-23T12:07:04.057Z,1436.00
2018-08-23T12:08:03.963Z,1376.00
2018-08-23T12:09:03.964Z,1308.00
2018-08-23T12:10:03.986Z,1256.00
2018-08-23T12:11:04.094Z,1216.00
2018-08-23T12:12:03.989Z,1192.00
2018-08-23T12:13:03.981Z,1184.00
2018-08-23T12:14:04.051Z,1200.00
2018-08-23T12:15:04.112Z,1236.00
2018-08-23T12:16:04.319Z,1680.00
2018-08-23T12:17:04.059Z,1744.00
2018-08-23T12:18:03.943Z,1480.00
2018-08-23T12:19:03.987Z,1404.00
2018-08-23T12:20:03.966Z,1320.00
2018-08-23T12:21:03.959Z,1236.00
2018-08-23T12:22:04.487Z,1152.00
2018-08-23T12:23:04.056Z,1072.00
2018-08-23T12:24:03.977Z,984.00
2018-08-23T12:25:04.019Z,912.00
2018-08-23T12:26:04.035Z,864.00
2018-08-23T12:27:03.993Z,836.00
2018-08-23T12:28:03.999Z,820.00
2018-08-23T12:29:04.025Z,788.00
2018-08-23T12:30:04.010Z,740.00
2018-08-23T12:31:04.104Z,696.00
2018-08-23T12:32:04.082Z,676.00